createdAt,value
2023-03-03T00:01:15.951Z,47.60
2023-03-03T00:03:43.094Z,34.13
2023-03-03T00:06:12.856Z,38.42
2023-03-03T00:08:40.770Z,28.27
2023-03-03T00:11:07.885Z,48.22
2023-03-03T00:13:52.426Z,60.88
2023-03-03T00:16:29.169Z,66.72
2023-03-03T00:18:56.775Z,47.10
2023-03-03T00:21:29.507Z,51.22
2023-03-03T00:24:14.289Z,77.18
2023-03-03T00:29:28.098Z,46.92
2023-03-03T00:31:55.430Z,49.53
2023-03-03T00:34:27.810Z,51.20
2023-03-03T00:36:56.858Z,31.73
2023-03-03T00:39:36.468Z,54.47
2023-03-03T00:42:20.283Z,65.25
2023-03-03T00:44:57.492Z,50.83
2023-03-03T00:47:31.947Z,72.22
2023-03-03T00:50:08.031Z,57.58
2023-03-03T00:52:46.352Z,73.75
2023-03-03T00:55:13.154Z,69.72
2023-03-03T00:57:39.899Z,54.53
2023-03-03T01:00:07.456Z,67.28
2023-03-03T01:02:34.368Z,62.13
2023-03-03T01:05:01.287Z,56.78
2023-03-03T01:07:27.973Z,59.08
2023-03-03T01:09:54.812Z,90.50
2023-03-03T01:12:21.675Z,55.15
2023-03-03T01:14:49.342Z,64.57
2023-03-03T01:17:16.321Z,47.63
2023-03-03T01:19:42.955Z,58.95
2023-03-03T01:22:09.766Z,65.03
2023-03-03T01:24:36.565Z,59.13
2023-03-03T01:27:03.274Z,72.93
2023-03-03T01:29:30.054Z,43.72
2023-03-03T01:31:58.454Z,73.97
2023-03-03T01:34:25.510Z,50.67
2023-03-03T01:36:52.168Z,64.47
2023-03-03T01:39:18.826Z,49.47
2023-03-03T01:41:45.698Z,61.13
2023-03-03T01:44:15.532Z,53.97
2023-03-03T01:47:14.875Z,75.13
2023-03-03T01:49:41.534Z,44.83
2023-03-03T01:52:36.240Z,53.13
2023-03-03T01:55:10.009Z,88.93
2023-03-03T01:57:47.752Z,58.45
2023-03-03T02:00:14.917Z,57.55
2023-03-03T02:02:43.876Z,73.53
2023-03-03T02:05:11.574Z,50.58
2023-03-03T02:07:39.025Z,61.70
2023-03-03T02:10:13.190Z,64.18
2023-03-03T02:12:52.584Z,60.40
2023-03-03T02:15:29.246Z,56.95
2023-03-03T02:18:00.496Z,86.15
2023-03-03T02:20:36.348Z,42.38
2023-03-03T02:23:13.459Z,59.78
2023-03-03T02:25:46.983Z,63.92
2023-03-03T02:28:14.049Z,67.22
2023-03-03T02:30:41.105Z,43.80
2023-03-03T02:33:08.115Z,70.72
2023-03-03T02:35:38.108Z,81.38
2023-03-03T02:38:12.620Z,62.72
2023-03-03T02:40:45.823Z,63.05
2023-03-03T02:43:12.700Z,52.47
2023-03-03T02:45:44.238Z,46.15
2023-03-03T02:48:11.566Z,96.35
2023-03-03T02:50:38.289Z,84.18
2023-03-03T02:53:04.981Z,73.47
2023-03-03T02:55:32.579Z,81.55
2023-03-03T02:57:59.923Z,83.47
2023-03-03T03:00:26.781Z,63.28
2023-03-03T03:02:53.482Z,84.47
2023-03-03T03:05:20.281Z,70.00
2023-03-03T03:07:47.130Z,55.67
2023-03-03T03:10:14.017Z,71.07
2023-03-03T03:12:40.752Z,90.90
2023-03-03T03:15:09.975Z,103.63
2023-03-03T03:17:38.604Z,76.65
2023-03-03T03:20:05.898Z,82.70
2023-03-03T03:22:32.579Z,80.82
2023-03-03T03:24:59.265Z,51.15
2023-03-03T03:27:26.000Z,60.35
2023-03-03T03:29:52.708Z,79.22
2023-03-03T03:32:19.527Z,91.70
2023-03-03T03:34:46.191Z,43.28
2023-03-03T03:37:12.985Z,70.82
2023-03-03T03:39:39.677Z,65.75
2023-03-03T03:42:06.405Z,78.97
2023-03-03T03:44:33.077Z,59.10
2023-03-03T03:46:59.814Z,67.82
2023-03-03T03:49:26.537Z,49.63
2023-03-03T03:51:53.268Z,90.30
2023-03-03T03:54:20.069Z,68.95
2023-03-03T03:56:46.982Z,59.25
2023-03-03T03:59:13.632Z,54.45
2023-03-03T04:01:40.311Z,74.28
2023-03-03T04:04:07.289Z,53.15
2023-03-03T04:06:34.138Z,71.15
2023-03-03T04:09:00.808Z,82.13
2023-03-03T04:11:27.448Z,93.55
2023-03-03T04:13:54.160Z,80.30
2023-03-03T04:16:20.800Z,94.68
2023-03-03T04:18:47.717Z,63.78
2023-03-03T04:21:15.086Z,73.38
2023-03-03T04:23:42.163Z,77.85
2023-03-03T04:26:10.511Z,102.60
2023-03-03T04:28:37.296Z,76.50
2023-03-03T04:31:04.543Z,65.53
2023-03-03T04:33:31.402Z,59.22
2023-03-03T04:35:58.043Z,59.42
2023-03-03T04:38:24.929Z,58.55
2023-03-03T04:40:51.691Z,48.10
2023-03-03T04:43:19.385Z,54.00
2023-03-03T04:45:46.169Z,64.07
2023-03-03T04:48:12.894Z,69.18
2023-03-03T04:50:39.663Z,55.58
2023-03-03T04:53:06.414Z,53.35
2023-03-03T04:55:33.408Z,46.65
2023-03-03T04:58:00.144Z,50.60
2023-03-03T05:00:26.970Z,52.63
2023-03-03T05:02:53.738Z,42.00
2023-03-03T05:05:20.400Z,44.60
2023-03-03T05:07:47.130Z,45.78
2023-03-03T05:10:14.038Z,73.25
2023-03-03T05:12:41.291Z,46.47
2023-03-03T05:15:08.428Z,51.15
2023-03-03T05:17:35.301Z,74.55
2023-03-03T05:20:02.360Z,70.03
2023-03-03T05:22:29.645Z,58.80
2023-03-03T05:24:56.680Z,63.05
2023-03-03T05:27:23.854Z,53.08
2023-03-03T05:29:51.293Z,67.05
2023-03-03T05:32:18.264Z,44.10
2023-03-03T05:34:44.977Z,69.32
2023-03-03T05:37:11.837Z,76.82
2023-03-03T05:39:38.867Z,55.08
2023-03-03T05:42:05.717Z,59.10
2023-03-03T05:44:32.789Z,59.83
2023-03-03T05:46:59.659Z,43.72
2023-03-03T05:49:26.721Z,32.17
2023-03-03T05:51:53.465Z,63.70
2023-03-03T05:54:20.615Z,52.90
2023-03-03T05:56:47.463Z,47.00
2023-03-03T05:59:14.213Z,68.80
2023-03-03T06:01:41.102Z,51.63
2023-03-03T06:04:08.473Z,41.63
2023-03-03T06:06:35.243Z,49.63
2023-03-03T06:09:01.931Z,55.40
2023-03-03T06:11:28.774Z,56.13
2023-03-03T06:13:55.611Z,50.55
2023-03-03T06:16:22.429Z,51.20
2023-03-03T06:18:49.241Z,65.70
2023-03-03T06:21:15.998Z,83.90
2023-03-03T06:23:42.794Z,66.82
2023-03-03T06:26:09.836Z,39.33
2023-03-03T06:28:36.577Z,42.58
2023-03-03T06:31:03.291Z,41.15
2023-03-03T06:33:30.019Z,37.42
2023-03-03T06:35:56.879Z,41.67
2023-03-03T06:38:23.814Z,43.67
2023-03-03T06:40:50.852Z,41.70
2023-03-03T06:43:17.573Z,61.45
2023-03-03T06:45:46.198Z,39.95
2023-03-03T06:48:12.905Z,44.15
2023-03-03T06:50:39.632Z,46.72
2023-03-03T06:53:17.259Z,38.75
2023-03-03T06:55:45.103Z,36.78
2023-03-03T06:58:14.952Z,48.05
2023-03-03T07:00:58.028Z,37.60
2023-03-03T07:03:29.579Z,46.50
2023-03-03T07:05:56.363Z,51.45
2023-03-03T07:08:25.058Z,61.75
2023-03-03T07:10:52.793Z,58.53
2023-03-03T07:13:27.997Z,50.33
2023-03-03T07:15:59.087Z,57.95
2023-03-03T07:18:38.348Z,55.72
2023-03-03T07:21:17.436Z,74.05
2023-03-03T07:23:46.011Z,47.45
2023-03-03T07:26:26.182Z,40.50
2023-03-03T07:28:56.097Z,32.33
2023-03-03T07:31:42.390Z,43.33
2023-03-03T07:34:18.753Z,36.17
2023-03-03T07:36:46.750Z,58.28
2023-03-03T07:39:26.020Z,32.97
2023-03-03T07:41:53.858Z,52.85
2023-03-03T07:44:34.643Z,43.25
2023-03-03T07:47:27.517Z,42.88
2023-03-03T07:49:56.707Z,36.92
2023-03-03T07:52:27.713Z,33.53
2023-03-03T07:54:58.705Z,31.63
2023-03-03T07:57:38.119Z,32.05
2023-03-03T08:00:18.574Z,33.53
2023-03-03T08:03:00.400Z,35.58
2023-03-03T08:05:41.881Z,28.60
2023-03-03T08:08:34.013Z,30.60
2023-03-03T08:11:02.216Z,30.38
2023-03-03T08:13:40.535Z,25.88
2023-03-03T08:16:11.063Z,25.20
2023-03-03T08:18:40.021Z,25.60
2023-03-03T08:21:19.161Z,26.25
2023-03-03T08:23:51.508Z,30.17
2023-03-03T08:26:20.513Z,30.20
2023-03-03T08:28:48.159Z,27.75
2023-03-03T08:31:30.850Z,27.08
2023-03-03T08:34:05.693Z,27.60
2023-03-03T08:36:34.697Z,31.63
2023-03-03T08:39:03.087Z,28.45
2023-03-03T08:41:29.937Z,28.33
2023-03-03T08:43:56.779Z,25.35
2023-03-03T08:46:23.806Z,25.52
2023-03-03T08:48:50.496Z,27.80
2023-03-03T08:51:17.368Z,25.40
2023-03-03T08:53:46.397Z,28.15
2023-03-03T08:56:13.892Z,26.13
2023-03-03T08:59:01.730Z,24.95
2023-03-03T09:01:32.790Z,22.48
2023-03-03T09:04:00.204Z,20.70
2023-03-03T09:06:28.790Z,24.85
2023-03-03T09:08:57.581Z,22.95
2023-03-03T09:11:27.473Z,22.92
2023-03-03T09:14:17.965Z,22.15
2023-03-03T09:16:55.044Z,19.20
2023-03-03T09:19:37.211Z,19.42
2023-03-03T09:22:26.031Z,17.65
2023-03-03T09:24:58.908Z,18.48
2023-03-03T09:27:35.687Z,15.25
2023-03-03T09:30:27.444Z,17.50
2023-03-03T09:32:58.913Z,14.65
2023-03-03T09:35:28.689Z,14.70
2023-03-03T09:37:55.590Z,14.00
2023-03-03T09:41:01.710Z,14.07
2023-03-03T09:44:04.816Z,14.10
2023-03-03T09:47:09.153Z,13.90
2023-03-03T09:50:02.148Z,14.23
2023-03-03T09:52:37.026Z,15.13
2023-03-03T09:55:18.219Z,14.77
2023-03-03T09:58:24.429Z,12.65
2023-03-03T10:01:08.405Z,13.02
2023-03-03T10:03:55.994Z,10.60
2023-03-03T10:06:37.020Z,11.90
2023-03-03T10:09:37.506Z,10.40
2023-03-03T10:12:07.717Z,10.15
2023-03-03T10:14:49.203Z,10.60
2023-03-03T10:17:40.833Z,10.38
2023-03-03T10:20:23.927Z,9.55
2023-03-03T10:22:55.789Z,9.98
2023-03-03T10:25:58.786Z,10.98
2023-03-03T10:28:35.520Z,10.45
2023-03-03T10:31:20.648Z,9.48
2023-03-03T10:34:03.465Z,9.65
2023-03-03T10:36:35.754Z,10.10
2023-03-03T10:39:30.738Z,10.73
2023-03-03T10:42:17.538Z,11.25
2023-03-03T10:45:03.144Z,12.40
2023-03-03T10:48:09.953Z,9.20
2023-03-03T10:51:16.240Z,10.90
2023-03-03T10:54:00.536Z,8.40
2023-03-03T10:56:52.767Z,9.43
2023-03-03T10:59:48.539Z,11.65
2023-03-03T11:02:59.437Z,8.38
2023-03-03T11:05:51.500Z,9.02
2023-03-03T11:08:30.500Z,7.75
2023-03-03T11:11:12.125Z,11.25
2023-03-03T11:13:52.038Z,10.38
2023-03-03T11:16:40.836Z,11.88
2023-03-03T11:19:39.385Z,10.18
2023-03-03T11:22:09.419Z,9.30
2023-03-03T11:24:51.545Z,10.73
2023-03-03T11:27:45.805Z,11.05
2023-03-03T11:30:45.534Z,11.48
2023-03-03T11:33:23.851Z,12.88
2023-03-03T11:36:05.226Z,11.20
2023-03-03T11:39:09.841Z,12.38
2023-03-03T11:41:42.555Z,12.15
2023-03-03T11:44:13.396Z,12.63
2023-03-03T11:47:04.130Z,11.43
2023-03-03T11:52:25.820Z,10.60
2023-03-03T11:55:02.150Z,10.73
2023-03-03T11:57:40.628Z,11.23
2023-03-03T12:00:32.996Z,13.63
2023-03-03T12:03:29.225Z,10.70
2023-03-03T12:06:35.199Z,12.32
2023-03-03T12:09:14.640Z,12.38
2023-03-03T12:12:08.444Z,14.38
2023-03-03T12:14:47.833Z,14.02
2023-03-03T12:17:34.921Z,14.80
2023-03-03T12:20:23.986Z,13.88
2023-03-03T12:23:20.475Z,13.27
2023-03-03T12:26:08.715Z,16.85
2023-03-03T12:28:43.713Z,12.80
2023-03-03T12:31:32.028Z,12.65
2023-03-03T12:34:13.834Z,15.73
2023-03-03T12:37:11.368Z,12.98
2023-03-03T12:39:50.264Z,12.75
2023-03-03T12:42:36.635Z,9.57
2023-03-03T12:45:31.289Z,9.73
2023-03-03T12:48:23.001Z,9.25
2023-03-03T12:53:57.755Z,7.53
2023-03-03T12:56:35.918Z,9.02
2023-03-03T12:59:11.552Z,10.48
2023-03-03T13:02:18.225Z,10.13
2023-03-03T13:04:56.570Z,9.45
2023-03-03T13:07:48.705Z,7.15
2023-03-03T13:10:21.904Z,8.25
2023-03-03T13:13:13.295Z,6.43
2023-03-03T13:16:06.161Z,9.50
2023-03-03T13:18:40.497Z,7.68
2023-03-03T13:21:43.244Z,7.13
2023-03-03T13:25:04.606Z,6.70
2023-03-03T13:27:39.433Z,6.40
2023-03-03T13:30:30.116Z,6.45
2023-03-03T13:33:12.306Z,7.32
2023-03-03T13:35:49.113Z,7.95
2023-03-03T13:38:23.478Z,5.82
2023-03-03T13:41:33.348Z,7.97
2023-03-03T13:44:16.954Z,9.60
2023-03-03T13:47:00.900Z,9.02
2023-03-03T13:49:48.038Z,6.40
2023-03-03T13:52:27.596Z,7.78
2023-03-03T13:55:15.003Z,6.85
2023-03-03T13:58:25.502Z,4.82
2023-03-03T14:01:28.360Z,5.68
2023-03-03T14:04:20.935Z,7.65
2023-03-03T14:06:57.568Z,5.63
2023-03-03T14:09:55.214Z,7.25
2023-03-03T14:12:53.570Z,9.57
2023-03-03T14:15:32.445Z,6.55
2023-03-03T14:18:31.220Z,5.55
2023-03-03T14:21:07.787Z,7.45
2023-03-03T14:23:59.296Z,6.25
2023-03-03T14:26:27.275Z,8.50
2023-03-03T14:29:22.873Z,7.60
2023-03-03T14:31:50.244Z,6.95
2023-03-03T14:34:41.436Z,6.68
2023-03-03T14:37:29.199Z,8.55
2023-03-03T14:40:22.335Z,7.25
2023-03-03T14:42:55.770Z,6.85
2023-03-03T14:45:38.461Z,7.57
2023-03-03T14:48:11.688Z,8.07
2023-03-03T14:50:41.524Z,6.75
2023-03-03T14:53:14.850Z,8.35
2023-03-03T14:55:44.630Z,7.97
2023-03-03T14:58:41.185Z,6.63
2023-03-03T15:01:26.100Z,7.03
2023-03-03T15:04:05.272Z,9.95
2023-03-03T15:06:42.906Z,11.27
2023-03-03T15:09:33.842Z,9.70
2023-03-03T15:12:01.606Z,10.70
2023-03-03T15:14:38.002Z,12.38
2023-03-03T15:17:25.360Z,11.52
2023-03-03T15:20:17.371Z,15.18
2023-03-03T15:23:18.426Z,12.98
2023-03-03T15:25:57.739Z,10.00
2023-03-03T15:28:48.525Z,13.15
2023-03-03T15:31:54.547Z,10.57
2023-03-03T15:34:37.782Z,16.10
2023-03-03T15:37:16.613Z,12.75
2023-03-03T15:39:58.170Z,11.88
2023-03-03T15:42:49.566Z,12.35
2023-03-03T15:45:16.283Z,11.88
2023-03-03T15:47:51.928Z,9.23
2023-03-03T15:50:41.747Z,11.55
2023-03-03T15:53:23.568Z,9.50
2023-03-03T15:56:06.136Z,10.98
2023-03-03T15:59:00.351Z,9.25
2023-03-03T16:01:32.730Z,9.35
2023-03-03T16:04:25.623Z,9.23
2023-03-03T16:07:05.610Z,8.57
2023-03-03T16:09:40.538Z,6.72
2023-03-03T16:12:36.757Z,8.02
2023-03-03T16:15:15.553Z,9.07
2023-03-03T16:18:29.976Z,8.35
2023-03-03T16:21:23.620Z,7.50
2023-03-03T16:23:59.830Z,8.98
2023-03-03T16:26:36.826Z,7.80
2023-03-03T16:29:12.643Z,7.18
2023-03-03T16:32:08.903Z,6.28
2023-03-03T16:34:56.238Z,7.90
2023-03-03T16:37:30.804Z,8.10
2023-03-03T16:40:12.452Z,7.28
2023-03-03T16:42:39.340Z,8.15
2023-03-03T16:45:21.667Z,8.75
2023-03-03T16:47:58.246Z,7.88
2023-03-03T16:50:53.317Z,7.70
2023-03-03T16:53:22.893Z,6.82
2023-03-03T16:56:10.941Z,7.43
2023-03-03T16:59:17.159Z,6.80
2023-03-03T17:02:05.836Z,7.43
2023-03-03T17:04:35.739Z,7.68
2023-03-03T17:07:36.546Z,7.45
2023-03-03T17:10:25.817Z,7.13
2023-03-03T17:13:24.381Z,6.00
2023-03-03T17:16:13.938Z,7.00
2023-03-03T17:18:55.735Z,7.45
2023-03-03T17:21:50.491Z,10.07
2023-03-03T17:24:37.250Z,7.15
2023-03-03T17:27:30.269Z,9.43
2023-03-03T17:30:26.714Z,9.40
2023-03-03T17:33:13.018Z,17.27
2023-03-03T17:35:51.925Z,10.93
2023-03-03T17:38:40.521Z,7.55
2023-03-03T17:41:28.737Z,9.05
2023-03-03T17:44:08.510Z,9.55
2023-03-03T17:46:55.111Z,9.45
2023-03-03T17:49:53.717Z,11.38
2023-03-03T17:52:33.324Z,9.52
2023-03-03T17:55:39.403Z,9.73
2023-03-03T17:58:34.493Z,7.85
2023-03-03T18:01:24.095Z,6.88
2023-03-03T18:04:09.466Z,7.63
2023-03-03T18:06:54.224Z,12.80
2023-03-03T18:09:45.371Z,8.50
2023-03-03T18:12:16.169Z,6.30
2023-03-03T18:14:53.033Z,10.48
2023-03-03T18:17:45.583Z,11.98
2023-03-03T18:20:42.737Z,11.07
2023-03-03T18:23:30.810Z,6.43
2023-03-03T18:26:03.478Z,7.35
2023-03-03T18:28:46.484Z,10.73
2023-03-03T18:31:43.845Z,13.20
2023-03-03T18:34:41.293Z,9.38
2023-03-03T18:37:10.868Z,12.98
2023-03-03T18:39:49.817Z,9.13
2023-03-03T18:42:16.559Z,13.77
2023-03-03T18:44:44.666Z,11.82
2023-03-03T18:47:11.976Z,10.95
2023-03-03T18:49:57.384Z,11.63
2023-03-03T18:52:25.992Z,13.30
2023-03-03T18:55:23.919Z,13.85
2023-03-03T18:58:30.324Z,15.25
2023-03-03T19:00:59.943Z,12.15
2023-03-03T19:03:53.035Z,12.75
2023-03-03T19:06:49.778Z,10.82
2023-03-03T19:09:40.752Z,18.50
2023-03-03T19:12:13.578Z,13.85
2023-03-03T19:14:44.857Z,17.42
2023-03-03T19:17:17.833Z,11.35
2023-03-03T19:20:12.927Z,16.80
2023-03-03T19:23:06.753Z,12.90
2023-03-03T19:25:33.828Z,20.30
2023-03-03T19:28:21.839Z,21.75
2023-03-03T19:30:59.516Z,22.33
2023-03-03T19:33:59.404Z,22.42
2023-03-03T19:36:39.684Z,13.90
2023-03-03T19:39:22.950Z,17.15
2023-03-03T19:41:58.295Z,14.90
2023-03-03T19:44:49.957Z,15.52
2023-03-03T19:47:33.543Z,18.92
2023-03-03T19:50:29.162Z,20.58
2023-03-03T19:53:16.917Z,26.42
2023-03-03T19:56:02.422Z,18.95
2023-03-03T19:58:49.415Z,13.90
2023-03-03T20:01:41.645Z,21.08
2023-03-03T20:04:17.717Z,24.08
2023-03-03T20:07:12.189Z,19.20
2023-03-03T20:09:48.919Z,17.27
2023-03-03T20:12:30.311Z,18.63
2023-03-03T20:15:12.500Z,11.48
2023-03-03T20:18:14.048Z,15.13
2023-03-03T20:21:06.043Z,21.35
2023-03-03T20:23:41.852Z,19.90
2023-03-03T20:26:25.802Z,17.17
2023-03-03T20:29:16.892Z,24.02
2023-03-03T20:32:08.282Z,19.45
2023-03-03T20:34:58.432Z,18.67
2023-03-03T20:37:33.283Z,21.42
2023-03-03T20:40:27.195Z,17.15
2023-03-03T20:43:20.801Z,20.85
2023-03-03T20:46:01.080Z,16.33
2023-03-03T20:49:04.344Z,20.05
2023-03-03T20:51:38.400Z,18.65
2023-03-03T20:54:29.931Z,19.90
2023-03-03T20:57:05.355Z,15.57
2023-03-03T20:59:42.925Z,20.08
2023-03-03T21:02:10.736Z,20.65
2023-03-03T21:04:38.325Z,22.33
2023-03-03T21:07:05.922Z,17.95
2023-03-03T21:09:38.167Z,18.77
2023-03-03T21:12:30.646Z,17.98
2023-03-03T21:15:36.369Z,14.57
2023-03-03T21:18:21.449Z,20.13
2023-03-03T21:20:48.461Z,21.95
2023-03-03T21:23:16.630Z,25.48
2023-03-03T21:25:53.750Z,17.83
2023-03-03T21:28:25.787Z,26.85
2023-03-03T21:31:06.914Z,24.58
2023-03-03T21:33:42.818Z,25.10
2023-03-03T21:36:11.590Z,21.35
2023-03-03T21:38:39.457Z,29.20
2023-03-03T21:41:08.013Z,19.33
2023-03-03T21:43:40.853Z,20.63
2023-03-03T21:46:07.710Z,20.85
2023-03-03T21:48:34.543Z,18.08
2023-03-03T21:51:02.001Z,24.90
2023-03-03T21:53:29.603Z,20.60
2023-03-03T21:55:56.428Z,27.85
2023-03-03T21:58:23.233Z,21.20
2023-03-03T22:00:49.953Z,21.40
2023-03-03T22:03:20.183Z,22.33
2023-03-03T22:05:49.114Z,20.45
2023-03-03T22:08:22.598Z,18.80
2023-03-03T22:10:53.875Z,20.63
2023-03-03T22:13:20.809Z,19.98
2023-03-03T22:15:48.281Z,19.55
2023-03-03T22:18:18.276Z,18.20
2023-03-03T22:20:46.296Z,26.50
2023-03-03T22:23:14.516Z,21.05
2023-03-03T22:25:41.685Z,28.35
2023-03-03T22:28:08.499Z,15.02
2023-03-03T22:30:36.127Z,27.38
2023-03-03T22:33:02.932Z,17.60
2023-03-03T22:35:29.848Z,16.55
2023-03-03T22:37:56.739Z,24.38
2023-03-03T22:40:23.771Z,24.45
2023-03-03T22:42:50.541Z,20.13
2023-03-03T22:45:17.545Z,19.05
2023-03-03T22:47:44.270Z,18.30
2023-03-03T22:50:11.575Z,18.98
2023-03-03T22:52:38.334Z,24.08
2023-03-03T22:55:05.641Z,25.15
2023-03-03T22:57:32.393Z,19.05
2023-03-03T23:00:00.108Z,15.45
2023-03-03T23:02:26.949Z,19.65
2023-03-03T23:04:58.387Z,17.45
2023-03-03T23:07:26.425Z,20.67
2023-03-03T23:09:53.277Z,18.60
2023-03-03T23:12:20.571Z,15.25
2023-03-03T23:14:47.355Z,18.23
2023-03-03T23:17:14.082Z,16.73
2023-03-03T23:19:40.870Z,23.02
2023-03-03T23:22:07.695Z,21.35
2023-03-03T23:24:34.620Z,15.52
2023-03-03T23:27:01.533Z,17.67
2023-03-03T23:29:28.257Z,15.57
2023-03-03T23:31:55.076Z,19.95
2023-03-03T23:34:22.073Z,14.68
2023-03-03T23:36:48.823Z,14.02
2023-03-03T23:39:16.735Z,17.45
2023-03-03T23:41:45.094Z,15.65
2023-03-03T23:44:12.679Z,13.63
2023-03-03T23:46:40.359Z,15.13
2023-03-03T23:49:07.376Z,12.88
2023-03-03T23:51:34.718Z,19.92
2023-03-03T23:54:01.458Z,19.92
2023-03-03T23:56:28.373Z,14.25
2023-03-03T23:58:55.150Z,16.23
